Virginia, Idaho
Current Conditions -  °F | °C
As of 7:53 PM on Friday 19 Dec 2014 (Local Time) from KPIH Reporting Station
Overcast Overcast  
Wind Chill: 28°   Ceiling: 1900
Heat Index: 35°   Visibility: 10mi
Dew Point: 33°   Wind: 9mph
Humidity: 92%   Direction: 250°WSW
Pressure: 30.09"   Gusts: NA
Location:  42.4064°N, 112.076°W
Report Text: KPIH 200253Z 25008KT 10SM OVC019 02/01 A3009 RMK AO2 RAE0159 SLP199 P0000 60001 T00170006 51002
Loading
Personal Weather Stations






























Interactive Weather Map New forecast layout! Learn more

10-Day Weather Forecast

Advertisements
Track Severe Weather on mobile